createdAt,value
2018-04-10T00:02:16.033Z,16.77
2018-04-10T00:07:22.862Z,16.66
2018-04-10T00:12:51.680Z,16.53
2018-04-10T00:15:19.964Z,16.49
2018-04-10T00:17:50.754Z,16.49
2018-04-10T00:20:18.859Z,16.45
2018-04-10T00:22:51.558Z,16.40
2018-04-10T00:40:41.710Z,16.26
2018-04-10T00:43:09.668Z,16.27
2018-04-10T00:45:37.610Z,16.28
2018-04-10T00:48:05.634Z,16.27
2018-04-10T00:50:33.592Z,16.27
2018-04-10T00:53:13.149Z,16.26
2018-04-10T01:09:28.652Z,16.14
2018-04-10T01:11:56.301Z,16.16
2018-04-10T01:14:23.908Z,16.15
2018-04-10T01:16:51.556Z,16.13
2018-04-10T01:19:19.173Z,16.13
2018-04-10T01:21:46.877Z,16.12
2018-04-10T01:24:14.485Z,16.13
2018-04-10T01:26:42.120Z,16.11
2018-04-10T01:29:09.812Z,16.12
2018-04-10T01:31:37.400Z,16.14
2018-04-10T01:34:05.205Z,16.07
2018-04-10T01:36:32.846Z,16.01
2018-04-10T01:39:00.671Z,15.99
2018-04-10T01:41:28.270Z,16.00
2018-04-10T01:43:55.909Z,15.98
2018-04-10T01:46:23.493Z,15.92
2018-04-10T01:48:51.144Z,15.93
2018-04-10T01:51:18.776Z,15.95
2018-04-10T01:53:46.540Z,15.92
2018-04-10T01:56:14.151Z,15.80
2018-04-10T01:58:41.798Z,15.75
2018-04-10T02:01:09.397Z,15.69
2018-04-10T02:03:37.061Z,15.67
2018-04-10T02:06:05.249Z,15.76
2018-04-10T02:08:33.096Z,15.83
2018-04-10T02:11:01.119Z,15.87
2018-04-10T02:17:32.112Z,15.60
2018-04-10T02:20:00.189Z,15.52
2018-04-10T02:22:28.268Z,15.42
2018-04-10T02:24:55.903Z,15.37
2018-04-10T02:27:23.512Z,15.27
2018-04-10T02:29:51.149Z,15.21
2018-04-10T02:32:18.817Z,15.26
2018-04-10T02:34:46.462Z,15.28
2018-04-10T02:37:14.083Z,15.29
2018-04-10T02:39:41.716Z,15.23
2018-04-10T02:42:09.331Z,15.24
2018-04-10T02:44:36.968Z,15.23
2018-04-10T02:47:04.659Z,15.22
2018-04-10T02:49:32.311Z,15.20
2018-04-10T02:51:59.970Z,15.20
2018-04-10T02:54:27.753Z,15.17
2018-04-10T02:56:55.441Z,15.15
2018-04-10T02:59:23.043Z,15.08
2018-04-10T03:01:50.709Z,15.09
2018-04-10T03:04:18.349Z,15.05
2018-04-10T03:06:45.979Z,15.04
2018-04-10T03:09:13.653Z,14.98
2018-04-10T03:11:41.288Z,14.97
2018-04-10T03:14:08.937Z,14.97
2018-04-10T03:16:36.584Z,15.07
2018-04-10T03:19:04.278Z,15.16
2018-04-10T03:21:31.924Z,15.14
2018-04-10T03:23:59.535Z,15.16
2018-04-10T03:26:27.169Z,15.06
2018-04-10T03:28:54.800Z,15.01
2018-04-10T03:31:22.467Z,14.99
2018-04-10T03:33:50.089Z,14.96
2018-04-10T03:36:17.714Z,14.86
2018-04-10T03:38:45.354Z,14.83
2018-04-10T03:41:12.984Z,14.87
2018-04-10T03:43:40.616Z,14.81
2018-04-10T03:46:08.208Z,14.79
2018-04-10T03:48:35.865Z,14.77
2018-04-10T03:51:03.474Z,14.81
2018-04-10T03:53:31.318Z,14.84
2018-04-10T03:55:58.923Z,14.81
2018-04-10T03:58:26.572Z,14.83
2018-04-10T04:00:54.168Z,14.88
2018-04-10T04:03:21.812Z,14.87
2018-04-10T04:05:49.418Z,14.90
2018-04-10T04:08:17.083Z,14.89
2018-04-10T04:10:44.739Z,14.91
2018-04-10T04:13:12.403Z,14.97
2018-04-10T04:15:40.032Z,14.95
2018-04-10T04:31:57.340Z,14.76
2018-04-10T04:34:24.968Z,14.83
2018-04-10T04:36:52.628Z,14.81
2018-04-10T04:39:20.227Z,14.79
2018-04-10T04:41:47.888Z,14.71
2018-04-10T04:44:15.560Z,14.66
2018-04-10T04:46:43.192Z,14.62
2018-04-10T04:49:10.797Z,14.56
2018-04-10T04:51:38.445Z,14.56
2018-04-10T04:54:06.112Z,14.54
2018-04-10T04:56:33.755Z,14.58
2018-04-10T04:59:01.351Z,14.66
2018-04-10T05:01:29.197Z,14.74
2018-04-10T05:03:56.788Z,14.82
2018-04-10T05:06:24.467Z,14.86
2018-04-10T05:08:52.071Z,14.85
2018-04-10T05:11:19.679Z,14.78
2018-04-10T05:13:47.380Z,14.76
2018-04-10T05:16:14.976Z,14.71
2018-04-10T05:18:42.678Z,14.71
2018-04-10T05:21:10.296Z,14.74
2018-04-10T05:23:37.945Z,14.72
2018-04-10T05:26:05.572Z,14.68
2018-04-10T05:28:33.215Z,14.72
2018-04-10T05:31:00.871Z,14.76
2018-04-10T05:33:28.544Z,14.77
2018-04-10T05:35:56.162Z,14.82
2018-04-10T05:38:23.825Z,14.93
2018-04-10T05:40:51.455Z,14.90
2018-04-10T05:43:19.104Z,14.78
2018-04-10T05:45:46.751Z,14.78
2018-04-10T05:48:15.289Z,14.79
2018-04-10T05:50:42.919Z,14.79
2018-04-10T05:53:10.554Z,14.77
2018-04-10T05:55:38.150Z,14.77
2018-04-10T05:58:05.781Z,14.74
2018-04-10T06:00:33.416Z,14.70
2018-04-10T06:03:01.022Z,14.68
2018-04-10T06:05:28.691Z,14.74
2018-04-10T06:07:56.300Z,14.76
2018-04-10T06:10:23.956Z,14.80
2018-04-10T06:12:51.570Z,14.83
2018-04-10T06:15:19.180Z,14.80
2018-04-10T06:17:46.827Z,14.68
2018-04-10T06:20:14.448Z,14.69
2018-04-10T06:22:42.108Z,14.73
2018-04-10T06:25:09.741Z,14.80
2018-04-10T06:27:37.380Z,14.84
2018-04-10T06:30:04.996Z,14.81
2018-04-10T06:32:33.393Z,14.84
2018-04-10T06:35:01.124Z,14.81
2018-04-10T06:37:28.793Z,14.77
2018-04-10T06:39:56.432Z,14.75
2018-04-10T06:42:24.135Z,14.75
2018-04-10T06:44:51.789Z,14.74
2018-04-10T06:47:19.452Z,14.83
2018-04-10T06:49:47.058Z,14.86
2018-04-10T06:52:14.757Z,14.88
2018-04-10T06:54:42.369Z,14.92
2018-04-10T06:57:10.128Z,15.00
2018-04-10T06:59:37.769Z,15.03
2018-04-10T07:02:05.396Z,15.09
2018-04-10T07:04:33.091Z,15.12
2018-04-10T07:07:00.742Z,15.10
2018-04-10T07:09:28.386Z,15.19
2018-04-10T07:11:56.019Z,15.23
2018-04-10T07:14:23.709Z,15.25
2018-04-10T07:16:51.418Z,15.28
2018-04-10T07:19:19.322Z,15.38
2018-04-10T07:21:46.973Z,15.48
2018-04-10T07:24:14.604Z,15.51
2018-04-10T07:26:42.213Z,15.61
2018-04-10T07:29:09.877Z,15.65
2018-04-10T07:31:37.485Z,15.64
2018-04-10T07:34:05.220Z,15.66
2018-04-10T07:36:32.780Z,15.68
2018-04-10T07:39:00.391Z,15.78
2018-04-10T07:41:28.043Z,15.86
2018-04-10T07:43:55.652Z,15.84
2018-04-10T07:46:23.491Z,15.89
2018-04-10T07:48:51.101Z,16.01
2018-04-10T07:51:18.751Z,16.02
2018-04-10T07:53:46.352Z,16.06
2018-04-10T07:56:14.014Z,16.18
2018-04-10T07:58:41.636Z,16.30
2018-04-10T08:01:09.311Z,16.43
2018-04-10T08:03:36.941Z,16.56
2018-04-10T08:06:04.624Z,16.57
2018-04-10T08:08:32.259Z,16.54
2018-04-10T08:10:59.912Z,16.57
2018-04-10T08:13:27.581Z,16.63
2018-04-10T08:15:55.248Z,16.73
2018-04-10T08:18:22.875Z,16.89
2018-04-10T08:20:50.480Z,16.93
2018-04-10T08:23:18.164Z,17.03
2018-04-10T08:25:45.790Z,17.04
2018-04-10T08:28:13.429Z,17.09
2018-04-10T08:30:41.084Z,17.17
2018-04-10T08:33:08.753Z,17.18
2018-04-10T08:35:36.372Z,17.22
2018-04-10T08:38:04.115Z,17.31
2018-04-10T08:40:31.756Z,17.34
2018-04-10T08:42:59.471Z,17.36
2018-04-10T08:45:27.091Z,17.35
2018-04-10T08:47:54.708Z,17.37
2018-04-10T08:50:22.287Z,17.46
2018-04-10T08:52:49.944Z,17.54
2018-04-10T08:55:17.571Z,17.58
2018-04-10T08:57:45.197Z,17.60
2018-04-10T09:00:12.798Z,17.58
2018-04-10T09:02:40.469Z,17.66
2018-04-10T09:05:08.101Z,17.71
2018-04-10T09:07:35.779Z,17.67
2018-04-10T09:10:03.529Z,17.62
2018-04-10T09:12:31.292Z,17.58
2018-04-10T09:14:58.961Z,17.63
2018-04-10T09:17:26.563Z,17.67
2018-04-10T09:19:54.225Z,17.68
2018-04-10T09:22:21.823Z,17.76
2018-04-10T09:24:49.460Z,17.83
2018-04-10T09:27:17.184Z,17.85
2018-04-10T09:29:44.952Z,17.92
2018-04-10T09:32:12.637Z,17.99
2018-04-10T09:34:40.322Z,17.95
2018-04-10T09:37:07.919Z,17.94
2018-04-10T09:39:35.537Z,17.90
2018-04-10T09:42:03.183Z,17.92
2018-04-10T09:44:30.785Z,17.93
2018-04-10T09:46:58.439Z,17.87
2018-04-10T09:49:26.038Z,17.88
2018-04-10T09:51:53.764Z,17.87
2018-04-10T09:54:21.473Z,17.87
2018-04-10T09:56:49.105Z,17.86
2018-04-10T09:59:16.915Z,17.88
2018-04-10T10:01:44.532Z,18.03
2018-04-10T10:04:12.137Z,18.17
2018-04-10T10:06:39.772Z,18.22
2018-04-10T10:09:07.355Z,18.23
2018-04-10T10:11:34.980Z,18.30
2018-04-10T10:14:02.584Z,18.33
2018-04-10T10:16:30.217Z,18.35
2018-04-10T10:18:57.831Z,18.34
2018-04-10T10:21:25.490Z,18.40
2018-04-10T10:23:53.077Z,18.40
2018-04-10T10:26:20.735Z,18.40
2018-04-10T10:28:48.334Z,18.40
2018-04-10T10:31:15.952Z,18.44
2018-04-10T10:33:43.672Z,18.44
2018-04-10T10:36:11.296Z,18.41
2018-04-10T10:38:38.931Z,18.32
2018-04-10T10:41:07.389Z,18.32
2018-04-10T10:43:35.026Z,18.26
2018-04-10T10:46:02.624Z,18.22
2018-04-10T10:48:30.260Z,18.25
2018-04-10T10:50:57.860Z,18.33
2018-04-10T10:53:25.551Z,18.45
2018-04-10T10:55:53.165Z,18.55
2018-04-10T10:58:20.830Z,18.55
2018-04-10T11:00:48.473Z,18.53
2018-04-10T11:03:16.302Z,18.55
2018-04-10T11:05:43.924Z,18.52
2018-04-10T11:08:11.550Z,18.49
2018-04-10T11:10:39.164Z,18.52
2018-04-10T11:13:06.857Z,18.55
2018-04-10T11:15:34.448Z,18.55
2018-04-10T11:18:02.113Z,18.53
2018-04-10T11:20:29.769Z,18.66
2018-04-10T11:22:57.534Z,18.61
2018-04-10T11:25:25.176Z,18.73
2018-04-10T11:27:52.773Z,18.84
2018-04-10T11:30:20.417Z,18.85
2018-04-10T11:32:47.997Z,18.87
2018-04-10T11:35:15.636Z,18.93
2018-04-10T11:37:43.239Z,19.08
2018-04-10T11:40:10.964Z,19.02
2018-04-10T11:42:38.560Z,19.21
2018-04-10T11:45:06.304Z,19.40
2018-04-10T11:47:33.917Z,19.66
2018-04-10T11:50:01.553Z,19.86
2018-04-10T11:52:29.162Z,20.12
2018-04-10T11:54:56.864Z,20.27
2018-04-10T11:57:24.468Z,19.92
2018-04-10T11:59:52.099Z,19.81
2018-04-10T12:02:19.740Z,19.89
2018-04-10T12:04:47.345Z,20.07
2018-04-10T12:07:14.982Z,20.25
2018-04-10T12:09:42.740Z,20.37
2018-04-10T12:12:10.385Z,20.48
2018-04-10T12:14:37.993Z,20.48
2018-04-10T12:17:05.678Z,20.41
2018-04-10T12:19:33.310Z,20.44
2018-04-10T12:22:01.008Z,20.40
2018-04-10T12:24:28.602Z,20.41
2018-04-10T12:26:56.344Z,20.44
2018-04-10T12:29:23.943Z,20.42
2018-04-10T12:31:51.588Z,20.37
2018-04-10T12:34:19.255Z,20.47
2018-04-10T12:36:46.970Z,20.52
2018-04-10T12:39:14.595Z,20.64
2018-04-10T12:41:42.323Z,20.63
2018-04-10T12:44:09.932Z,20.67
2018-04-10T12:46:37.554Z,20.78
2018-04-10T12:49:05.299Z,20.81
2018-04-10T12:51:32.912Z,20.76
2018-04-10T12:54:00.540Z,20.72
2018-04-10T12:56:28.128Z,20.73
2018-04-10T12:58:55.791Z,20.73
2018-04-10T13:01:23.385Z,20.76
2018-04-10T13:03:51.117Z,20.85
2018-04-10T13:06:18.761Z,20.91
2018-04-10T13:08:46.389Z,20.95
2018-04-10T13:11:13.991Z,20.99
2018-04-10T13:13:41.640Z,20.99
2018-04-10T13:16:09.358Z,20.89
2018-04-10T13:18:37.026Z,20.90
2018-04-10T13:21:04.663Z,20.90
2018-04-10T13:23:32.304Z,20.95
2018-04-10T13:25:59.965Z,21.11
2018-04-10T13:28:27.718Z,21.37
2018-04-10T13:30:55.324Z,21.61
2018-04-10T13:33:22.920Z,21.78
2018-04-10T13:35:50.569Z,22.05
2018-04-10T13:38:18.156Z,22.20
2018-04-10T13:40:45.818Z,22.42
2018-04-10T13:43:13.423Z,22.28
2018-04-10T13:45:41.053Z,22.14
2018-04-10T13:48:08.649Z,22.21
2018-04-10T13:50:36.271Z,22.27
2018-04-10T13:53:03.881Z,22.41
2018-04-10T13:55:31.608Z,22.35
2018-04-10T13:57:59.201Z,22.18
2018-04-10T14:00:26.819Z,22.00
2018-04-10T14:02:54.449Z,21.80
2018-04-10T14:05:22.246Z,21.67
2018-04-10T14:07:49.823Z,21.75
2018-04-10T14:10:17.447Z,21.90
2018-04-10T14:12:45.099Z,21.86
2018-04-10T14:15:12.720Z,21.83
2018-04-10T14:17:40.328Z,21.81
2018-04-10T14:20:07.944Z,21.75
2018-04-10T14:22:35.589Z,21.68
2018-04-10T14:25:03.179Z,21.56
2018-04-10T14:27:30.841Z,21.41
2018-04-10T14:29:58.596Z,21.29
2018-04-10T14:32:26.233Z,21.22
2018-04-10T14:34:53.865Z,21.14
2018-04-10T14:37:21.494Z,21.11
2018-04-10T14:39:49.076Z,21.09
2018-04-10T14:42:16.682Z,21.11
2018-04-10T14:44:44.262Z,21.10
2018-04-10T14:47:11.896Z,21.02
2018-04-10T14:49:39.508Z,21.02
2018-04-10T14:52:07.132Z,21.07
2018-04-10T14:54:34.735Z,21.00
2018-04-10T14:57:02.388Z,20.98
2018-04-10T14:59:29.999Z,20.98
2018-04-10T15:01:57.653Z,21.02
2018-04-10T15:04:25.274Z,21.08
2018-04-10T15:06:52.917Z,21.19
2018-04-10T15:09:20.529Z,21.37
2018-04-10T15:11:48.160Z,21.53
2018-04-10T15:14:15.797Z,21.70
2018-04-10T15:16:43.396Z,21.72
2018-04-10T15:19:11.009Z,21.71
2018-04-10T15:21:38.605Z,21.68
2018-04-10T15:24:06.279Z,21.64
2018-04-10T15:26:33.875Z,21.51
2018-04-10T15:29:01.532Z,21.31
2018-04-10T15:31:29.128Z,21.28
2018-04-10T15:33:56.766Z,21.18
2018-04-10T15:36:24.369Z,21.10
2018-04-10T15:38:52.046Z,21.01
2018-04-10T15:41:19.645Z,20.99
2018-04-10T15:43:47.274Z,20.92
2018-04-10T15:46:14.883Z,20.88
2018-04-10T15:48:42.508Z,20.86
2018-04-10T15:51:10.116Z,20.85
2018-04-10T15:53:37.764Z,20.83
2018-04-10T15:56:05.446Z,20.81
2018-04-10T15:58:33.100Z,20.84
2018-04-10T16:01:00.721Z,20.86
2018-04-10T16:03:28.562Z,20.80
2018-04-10T16:05:56.165Z,20.78
2018-04-10T16:08:23.876Z,20.74
2018-04-10T16:10:51.539Z,20.73
2018-04-10T16:13:19.182Z,20.72
2018-04-10T16:15:46.816Z,20.69
2018-04-10T16:18:14.441Z,20.65
2018-04-10T16:20:42.198Z,20.67
2018-04-10T16:23:09.824Z,20.62
2018-04-10T16:25:37.621Z,20.60
2018-04-10T16:28:05.257Z,20.61
2018-04-10T16:30:32.977Z,20.57
2018-04-10T16:33:00.656Z,20.49
2018-04-10T16:35:28.313Z,20.47
2018-04-10T16:37:55.947Z,20.44
2018-04-10T16:40:23.635Z,20.41
2018-04-10T16:42:51.495Z,20.38
2018-04-10T16:45:19.167Z,20.31
2018-04-10T16:47:46.816Z,20.30
2018-04-10T16:50:14.471Z,20.29
2018-04-10T16:52:42.086Z,20.23
2018-04-10T16:55:09.762Z,20.18
2018-04-10T16:57:37.360Z,20.15
2018-04-10T17:00:05.090Z,20.08
2018-04-10T17:02:32.752Z,20.06
2018-04-10T17:05:00.339Z,20.02
2018-04-10T17:07:27.974Z,20.06
2018-04-10T17:09:55.593Z,20.04
2018-04-10T17:12:23.298Z,20.01
2018-04-10T17:14:51.015Z,19.98
2018-04-10T17:17:18.702Z,19.92
2018-04-10T17:19:46.333Z,19.87
2018-04-10T17:22:13.984Z,19.86
2018-04-10T17:24:41.593Z,19.85
2018-04-10T17:27:09.320Z,19.80
2018-04-10T17:29:36.945Z,19.77
2018-04-10T17:32:04.614Z,19.77
2018-04-10T17:34:32.293Z,19.78
2018-04-10T17:36:59.958Z,19.80
2018-04-10T17:39:46.660Z,19.82
2018-04-10T17:42:14.363Z,19.76
2018-04-10T17:47:32.197Z,19.49
2018-04-10T17:49:59.861Z,19.33
2018-04-10T17:52:27.641Z,19.27
2018-04-10T17:54:55.290Z,19.25
2018-04-10T17:57:22.932Z,19.18
2018-04-10T17:59:50.556Z,19.05
2018-04-10T18:02:18.232Z,18.89
2018-04-10T18:04:45.846Z,18.75
2018-04-10T18:07:13.489Z,18.64
2018-04-10T18:09:41.193Z,18.60
2018-04-10T18:12:08.852Z,18.45
2018-04-10T18:14:36.506Z,18.41
2018-04-10T18:17:04.154Z,18.21
2018-04-10T18:19:31.866Z,18.01
2018-04-10T18:21:59.478Z,17.93
2018-04-10T18:24:27.153Z,17.87
2018-04-10T18:26:54.795Z,17.82
2018-04-10T18:29:22.473Z,17.82
2018-04-10T18:31:50.126Z,17.80
2018-04-10T18:34:17.839Z,17.89
2018-04-10T18:36:45.560Z,17.85
2018-04-10T18:39:13.221Z,17.83
2018-04-10T18:41:40.887Z,17.81
2018-04-10T18:44:26.629Z,17.72
2018-04-10T18:47:11.485Z,17.67
2018-04-10T18:49:39.140Z,17.66
2018-04-10T18:52:06.746Z,17.66
2018-04-10T18:54:34.408Z,17.66
2018-04-10T18:57:02.048Z,17.46
2018-04-10T18:59:29.845Z,17.39
2018-04-10T19:01:57.458Z,17.28
2018-04-10T19:04:25.245Z,17.15
2018-04-10T19:06:52.905Z,17.09
2018-04-10T19:09:20.508Z,17.09
2018-04-10T19:11:48.181Z,17.06
2018-04-10T19:14:15.773Z,17.13
2018-04-10T19:16:43.419Z,17.08
2018-04-10T19:19:12.093Z,17.01
2018-04-10T19:21:51.249Z,16.94
2018-04-10T19:24:18.966Z,16.67
2018-04-10T19:26:46.616Z,16.53
2018-04-10T19:29:14.307Z,16.31
2018-04-10T19:31:41.946Z,16.09
2018-04-10T19:34:09.586Z,16.00
2018-04-10T19:36:37.239Z,15.86
2018-04-10T19:39:04.853Z,15.83
2018-04-10T19:41:32.508Z,15.88
2018-04-10T19:44:01.300Z,15.90
2018-04-10T19:46:30.481Z,16.05
2018-04-10T19:49:10.073Z,16.15
2018-04-10T19:51:39.197Z,16.33
2018-04-10T20:02:42.512Z,16.13
2018-04-10T20:10:23.928Z,15.66
2018-04-10T20:12:52.099Z,15.38
2018-04-10T20:15:20.274Z,15.02
2018-04-10T20:17:48.101Z,14.86
2018-04-10T20:20:16.324Z,14.90
2018-04-10T20:22:44.496Z,14.98
2018-04-10T20:25:12.328Z,14.92
2018-04-10T20:27:40.329Z,14.90
2018-04-10T20:30:08.073Z,14.81
2018-04-10T20:32:36.056Z,14.83
2018-04-10T20:35:03.865Z,14.80
2018-04-10T20:37:31.993Z,14.76
2018-04-10T20:39:59.745Z,14.74
2018-04-10T20:42:27.389Z,14.76
2018-04-10T20:44:55.095Z,14.76
2018-04-10T20:47:22.716Z,14.84
2018-04-10T20:49:50.377Z,14.98
2018-04-10T20:52:18.002Z,14.98
2018-04-10T20:54:45.700Z,15.06
2018-04-10T20:57:13.325Z,15.15
2018-04-10T20:59:40.984Z,15.21
2018-04-10T21:02:08.629Z,15.19
2018-04-10T21:04:36.285Z,15.18
2018-04-10T21:07:03.947Z,15.10
2018-04-10T21:09:31.960Z,15.16
2018-04-10T21:11:59.624Z,15.20
2018-04-10T21:14:27.287Z,15.29
2018-04-10T21:16:54.908Z,15.29
2018-04-10T21:19:22.556Z,15.24
2018-04-10T21:21:50.172Z,15.17
2018-04-10T21:24:17.847Z,15.17
2018-04-10T21:26:45.486Z,15.12
2018-04-10T21:29:13.077Z,15.12
2018-04-10T21:31:40.719Z,15.18
2018-04-10T21:34:08.359Z,15.21
2018-04-10T21:36:36.024Z,15.22
2018-04-10T21:39:03.654Z,15.29
2018-04-10T21:41:31.292Z,15.24
2018-04-10T21:43:58.896Z,15.10
2018-04-10T21:46:26.577Z,15.10
2018-04-10T21:48:54.173Z,14.92
2018-04-10T21:51:21.812Z,14.84
2018-04-10T21:53:49.410Z,14.90
2018-04-10T21:56:17.149Z,14.94
2018-04-10T21:58:44.748Z,14.96
2018-04-10T22:01:12.389Z,14.85
2018-04-10T22:03:39.981Z,14.78
2018-04-10T22:06:07.572Z,14.61
2018-04-10T22:08:35.205Z,14.48
2018-04-10T22:11:02.819Z,14.36
2018-04-10T22:13:30.440Z,14.31
2018-04-10T22:15:58.037Z,14.26
2018-04-10T22:18:25.684Z,14.17
2018-04-10T22:20:53.284Z,14.17
2018-04-10T22:23:20.933Z,14.05
2018-04-10T22:25:48.544Z,14.13
2018-04-10T22:28:16.185Z,14.19
2018-04-10T22:30:43.872Z,14.23
2018-04-10T22:33:11.508Z,14.16
2018-04-10T22:35:39.111Z,14.09
2018-04-10T22:38:06.714Z,14.02
2018-04-10T22:40:34.333Z,14.09
2018-04-10T22:43:01.934Z,14.15
2018-04-10T22:45:29.581Z,14.28
2018-04-10T22:47:57.184Z,14.32
2018-04-10T22:50:24.846Z,14.30
2018-04-10T22:52:52.429Z,14.35
2018-04-10T22:55:20.045Z,14.33
2018-04-10T22:57:47.715Z,14.16
2018-04-10T23:00:15.336Z,14.21
2018-04-10T23:02:42.929Z,14.33
2018-04-10T23:05:10.558Z,14.47
2018-04-10T23:07:38.151Z,14.51
2018-04-10T23:10:05.789Z,14.59
2018-04-10T23:12:33.385Z,14.65
2018-04-10T23:15:00.982Z,14.66
2018-04-10T23:17:28.618Z,14.69
2018-04-10T23:19:56.208Z,14.61
2018-04-10T23:22:23.817Z,14.41
2018-04-10T23:24:51.407Z,14.39
2018-04-10T23:27:19.074Z,14.40
2018-04-10T23:29:46.663Z,14.21
2018-04-10T23:32:14.306Z,14.21
2018-04-10T23:34:41.905Z,14.27
2018-04-10T23:37:09.544Z,14.34
2018-04-10T23:39:37.156Z,14.40
2018-04-10T23:42:04.780Z,14.49
2018-04-10T23:44:32.368Z,14.48
2018-04-10T23:47:00.025Z,14.51
2018-04-10T23:49:27.621Z,14.33
2018-04-10T23:51:55.297Z,14.07
2018-04-10T23:54:22.896Z,13.90
2018-04-10T23:56:50.524Z,13.70
2018-04-10T23:59:18.145Z,13.63
